sensor_id;sensor_type;location;lat;lon;timestamp;temperature;humidity
13123;DHT22;6627;50.920;12.050;2022-07-03T00:01:01;15.10;99.90
13123;DHT22;6627;50.920;12.050;2022-07-03T00:03:34;15.60;99.90
13123;DHT22;6627;50.920;12.050;2022-07-03T00:06:10;15.30;99.90
13123;DHT22;6627;50.920;12.050;2022-07-03T00:08:43;15.00;99.90
13123;DHT22;6627;50.920;12.050;2022-07-03T00:11:13;14.90;99.90
13123;DHT22;6627;50.920;12.050;2022-07-03T00:13:43;15.00;99.90
13123;DHT22;6627;50.920;12.050;2022-07-03T00:16:14;14.90;99.90
13123;DHT22;6627;50.920;12.050;2022-07-03T00:18:46;14.70;99.90
13123;DHT22;6627;50.920;12.050;2022-07-03T00:21:19;14.70;99.90
13123;DHT22;6627;50.920;12.050;2022-07-03T00:23:58;15.00;99.90
13123;DHT22;6627;50.920;12.050;2022-07-03T00:26:39;14.70;99.90
13123;DHT22;6627;50.920;12.050;2022-07-03T00:29:22;14.60;1.00
13123;DHT22;6627;50.920;12.050;2022-07-03T00:31:56;14.60;1.00
13123;DHT22;6627;50.920;12.050;2022-07-03T00:34:32;14.30;99.90
13123;DHT22;6627;50.920;12.050;2022-07-03T00:37:08;14.10;99.90
13123;DHT22;6627;50.920;12.050;2022-07-03T00:39:41;14.10;99.90
13123;DHT22;6627;50.920;12.050;2022-07-03T00:42:20;14.10;99.90
13123;DHT22;6627;50.920;12.050;2022-07-03T00:44:56;14.00;99.90
13123;DHT22;6627;50.920;12.050;2022-07-03T00:47:29;14.10;99.90
13123;DHT22;6627;50.920;12.050;2022-07-03T00:50:08;14.30;99.90
13123;DHT22;6627;50.920;12.050;2022-07-03T00:52:46;14.40;99.90
13123;DHT22;6627;50.920;12.050;2022-07-03T00:55:21;14.20;99.90
13123;DHT22;6627;50.920;12.050;2022-07-03T00:57:56;14.00;99.90
13123;DHT22;6627;50.920;12.050;2022-07-03T01:00:29;13.90;99.90
13123;DHT22;6627;50.920;12.050;2022-07-03T01:03:06;13.80;99.90
13123;DHT22;6627;50.920;12.050;2022-07-03T01:05:40;13.70;99.90
13123;DHT22;6627;50.920;12.050;2022-07-03T01:08:21;13.60;99.90
13123;DHT22;6627;50.920;12.050;2022-07-03T01:11:06;13.60;99.90
13123;DHT22;6627;50.920;12.050;2022-07-03T01:13:50;13.80;99.90
13123;DHT22;6627;50.920;12.050;2022-07-03T01:16:37;14.00;99.90
13123;DHT22;6627;50.920;12.050;2022-07-03T01:19:35;14.30;99.90
13123;DHT22;6627;50.920;12.050;2022-07-03T01:22:29;14.50;99.90
13123;DHT22;6627;50.920;12.050;2022-07-03T01:25:23;14.60;99.90
13123;DHT22;6627;50.920;12.050;2022-07-03T01:28:14;14.30;99.90
13123;DHT22;6627;50.920;12.050;2022-07-03T01:30:51;13.90;99.90
13123;DHT22;6627;50.920;12.050;2022-07-03T01:33:30;13.80;99.90
13123;DHT22;6627;50.920;12.050;2022-07-03T01:36:05;14.00;99.90
13123;DHT22;6627;50.920;12.050;2022-07-03T01:38:41;13.90;99.90
13123;DHT22;6627;50.920;12.050;2022-07-03T01:41:12;13.60;99.90
13123;DHT22;6627;50.920;12.050;2022-07-03T01:43:48;13.20;99.90
13123;DHT22;6627;50.920;12.050;2022-07-03T01:46:27;13.10;99.90
13123;DHT22;6627;50.920;12.050;2022-07-03T01:49:03;13.00;99.90
13123;DHT22;6627;50.920;12.050;2022-07-03T01:51:42;13.00;99.90
13123;DHT22;6627;50.920;12.050;2022-07-03T01:54:12;12.90;99.90
13123;DHT22;6627;50.920;12.050;2022-07-03T01:56:46;12.80;99.90
13123;DHT22;6627;50.920;12.050;2022-07-03T01:59:23;12.80;99.90
13123;DHT22;6627;50.920;12.050;2022-07-03T02:02:00;12.80;99.90
13123;DHT22;6627;50.920;12.050;2022-07-03T02:04:51;12.80;99.90
13123;DHT22;6627;50.920;12.050;2022-07-03T02:07:39;13.10;99.90
13123;DHT22;6627;50.920;12.050;2022-07-03T02:10:26;13.50;99.90
13123;DHT22;6627;50.920;12.050;2022-07-03T02:13:00;13.20;99.90
13123;DHT22;6627;50.920;12.050;2022-07-03T02:15:42;13.20;99.90
13123;DHT22;6627;50.920;12.050;2022-07-03T02:18:24;13.20;99.90
13123;DHT22;6627;50.920;12.050;2022-07-03T02:21:04;13.50;99.90
13123;DHT22;6627;50.920;12.050;2022-07-03T02:23:51;13.50;99.90
13123;DHT22;6627;50.920;12.050;2022-07-03T02:26:33;13.10;99.90
13123;DHT22;6627;50.920;12.050;2022-07-03T02:29:12;12.90;99.90
13123;DHT22;6627;50.920;12.050;2022-07-03T02:31:58;12.70;99.90
13123;DHT22;6627;50.920;12.050;2022-07-03T02:34:30;12.60;99.90
13123;DHT22;6627;50.920;12.050;2022-07-03T02:37:10;12.60;99.90
13123;DHT22;6627;50.920;12.050;2022-07-03T02:39:45;12.70;99.90
13123;DHT22;6627;50.920;12.050;2022-07-03T02:42:28;12.90;99.90
13123;DHT22;6627;50.920;12.050;2022-07-03T02:45:02;13.30;99.90
13123;DHT22;6627;50.920;12.050;2022-07-03T02:47:47;13.50;99.90
13123;DHT22;6627;50.920;12.050;2022-07-03T02:50:28;13.70;99.90
13123;DHT22;6627;50.920;12.050;2022-07-03T02:53:04;13.80;99.90
13123;DHT22;6627;50.920;12.050;2022-07-03T02:55:42;13.60;99.90
13123;DHT22;6627;50.920;12.050;2022-07-03T02:58:44;13.20;99.90
13123;DHT22;6627;50.920;12.050;2022-07-03T03:01:38;13.20;99.90
13123;DHT22;6627;50.920;12.050;2022-07-03T03:04:22;13.00;99.90
13123;DHT22;6627;50.920;12.050;2022-07-03T03:07:03;12.80;99.90
13123;DHT22;6627;50.920;12.050;2022-07-03T03:09:45;12.70;99.90
13123;DHT22;6627;50.920;12.050;2022-07-03T03:12:28;12.50;99.90
13123;DHT22;6627;50.920;12.050;2022-07-03T03:15:05;12.80;99.90
13123;DHT22;6627;50.920;12.050;2022-07-03T03:17:50;12.80;99.90
13123;DHT22;6627;50.920;12.050;2022-07-03T03:20:29;12.70;99.90
13123;DHT22;6627;50.920;12.050;2022-07-03T03:23:19;12.60;99.90
13123;DHT22;6627;50.920;12.050;2022-07-03T03:26:01;12.90;99.90
13123;DHT22;6627;50.920;12.050;2022-07-03T03:28:30;13.20;99.90
13123;DHT22;6627;50.920;12.050;2022-07-03T03:31:00;13.40;99.90
13123;DHT22;6627;50.920;12.050;2022-07-03T03:33:37;13.50;99.90
13123;DHT22;6627;50.920;12.050;2022-07-03T03:36:13;13.60;99.90
13123;DHT22;6627;50.920;12.050;2022-07-03T03:38:49;13.60;99.90
13123;DHT22;6627;50.920;12.050;2022-07-03T03:41:21;13.70;99.90
13123;DHT22;6627;50.920;12.050;2022-07-03T03:43:52;13.70;99.90
13123;DHT22;6627;50.920;12.050;2022-07-03T03:46:26;13.80;99.90
13123;DHT22;6627;50.920;12.050;2022-07-03T03:48:54;13.80;99.90
13123;DHT22;6627;50.920;12.050;2022-07-03T03:51:26;13.70;99.90
13123;DHT22;6627;50.920;12.050;2022-07-03T03:53:56;13.80;99.90
13123;DHT22;6627;50.920;12.050;2022-07-03T03:56:33;13.80;99.90
13123;DHT22;6627;50.920;12.050;2022-07-03T03:59:06;13.80;99.90
13123;DHT22;6627;50.920;12.050;2022-07-03T04:01:42;13.90;99.90
13123;DHT22;6627;50.920;12.050;2022-07-03T04:04:16;13.90;99.90
13123;DHT22;6627;50.920;12.050;2022-07-03T04:06:54;13.90;99.90
13123;DHT22;6627;50.920;12.050;2022-07-03T04:09:30;14.00;99.90
13123;DHT22;6627;50.920;12.050;2022-07-03T04:12:04;13.80;99.90
13123;DHT22;6627;50.920;12.050;2022-07-03T04:14:39;13.70;99.90
13123;DHT22;6627;50.920;12.050;2022-07-03T04:17:08;13.60;99.90
13123;DHT22;6627;50.920;12.050;2022-07-03T04:19:39;13.80;99.90
13123;DHT22;6627;50.920;12.050;2022-07-03T04:22:13;13.80;99.90
13123;DHT22;6627;50.920;12.050;2022-07-03T04:24:47;14.00;99.90
13123;DHT22;6627;50.920;12.050;2022-07-03T04:27:15;14.10;99.90
13123;DHT22;6627;50.920;12.050;2022-07-03T04:29:47;14.20;99.90
13123;DHT22;6627;50.920;12.050;2022-07-03T04:32:19;14.20;99.90
13123;DHT22;6627;50.920;12.050;2022-07-03T04:34:48;13.80;99.90
13123;DHT22;6627;50.920;12.050;2022-07-03T04:37:19;13.80;99.90
13123;DHT22;6627;50.920;12.050;2022-07-03T04:39:49;13.50;99.90
13123;DHT22;6627;50.920;12.050;2022-07-03T04:42:17;13.40;99.90
13123;DHT22;6627;50.920;12.050;2022-07-03T04:44:47;13.40;99.90
13123;DHT22;6627;50.920;12.050;2022-07-03T04:47:19;13.40;99.90
13123;DHT22;6627;50.920;12.050;2022-07-03T04:49:53;13.40;99.90
13123;DHT22;6627;50.920;12.050;2022-07-03T04:52:22;13.70;99.90
13123;DHT22;6627;50.920;12.050;2022-07-03T04:54:56;13.70;99.90
13123;DHT22;6627;50.920;12.050;2022-07-03T04:57:29;13.70;99.90
13123;DHT22;6627;50.920;12.050;2022-07-03T05:00:09;13.90;99.90
13123;DHT22;6627;50.920;12.050;2022-07-03T05:02:42;14.20;99.90
13123;DHT22;6627;50.920;12.050;2022-07-03T05:05:18;14.60;99.90
13123;DHT22;6627;50.920;12.050;2022-07-03T05:10:26;14.90;99.90
13123;DHT22;6627;50.920;12.050;2022-07-03T05:13:00;15.00;99.90
13123;DHT22;6627;50.920;12.050;2022-07-03T05:15:30;15.00;99.90
13123;DHT22;6627;50.920;12.050;2022-07-03T05:18:05;15.30;99.90
13123;DHT22;6627;50.920;12.050;2022-07-03T05:20:34;15.40;99.90
13123;DHT22;6627;50.920;12.050;2022-07-03T05:23:10;15.60;99.90
13123;DHT22;6627;50.920;12.050;2022-07-03T05:25:44;15.70;99.90
13123;DHT22;6627;50.920;12.050;2022-07-03T05:28:18;15.80;99.90
13123;DHT22;6627;50.920;12.050;2022-07-03T05:30:50;16.00;99.90
13123;DHT22;6627;50.920;12.050;2022-07-03T05:33:19;16.20;99.90
13123;DHT22;6627;50.920;12.050;2022-07-03T05:35:51;16.40;99.90
13123;DHT22;6627;50.920;12.050;2022-07-03T05:38:33;16.50;99.90
13123;DHT22;6627;50.920;12.050;2022-07-03T05:41:21;16.50;99.90
13123;DHT22;6627;50.920;12.050;2022-07-03T05:43:56;16.80;99.90
13123;DHT22;6627;50.920;12.050;2022-07-03T05:46:29;16.80;99.90
13123;DHT22;6627;50.920;12.050;2022-07-03T05:49:09;17.00;99.90
13123;DHT22;6627;50.920;12.050;2022-07-03T05:51:43;17.00;99.90
13123;DHT22;6627;50.920;12.050;2022-07-03T05:54:23;17.30;99.90
13123;DHT22;6627;50.920;12.050;2022-07-03T05:56:56;17.40;99.90
13123;DHT22;6627;50.920;12.050;2022-07-03T05:59:28;17.50;99.90
13123;DHT22;6627;50.920;12.050;2022-07-03T06:02:07;17.50;99.90
13123;DHT22;6627;50.920;12.050;2022-07-03T06:04:38;17.70;99.90
13123;DHT22;6627;50.920;12.050;2022-07-03T06:07:14;17.90;99.90
13123;DHT22;6627;50.920;12.050;2022-07-03T06:09:48;18.20;99.90
13123;DHT22;6627;50.920;12.050;2022-07-03T06:12:21;18.30;99.90
13123;DHT22;6627;50.920;12.050;2022-07-03T06:14:55;18.50;99.90
13123;DHT22;6627;50.920;12.050;2022-07-03T06:17:34;18.70;99.90
13123;DHT22;6627;50.920;12.050;2022-07-03T06:20:06;19.20;99.90
13123;DHT22;6627;50.920;12.050;2022-07-03T06:22:39;19.70;99.90
13123;DHT22;6627;50.920;12.050;2022-07-03T06:25:10;20.00;99.90
13123;DHT22;6627;50.920;12.050;2022-07-03T06:27:42;20.20;99.90
13123;DHT22;6627;50.920;12.050;2022-07-03T06:30:14;20.30;99.90
13123;DHT22;6627;50.920;12.050;2022-07-03T06:32:45;20.60;99.90
13123;DHT22;6627;50.920;12.050;2022-07-03T06:35:22;20.80;99.90
13123;DHT22;6627;50.920;12.050;2022-07-03T06:38:00;21.20;99.90
13123;DHT22;6627;50.920;12.050;2022-07-03T06:40:34;21.30;99.90
13123;DHT22;6627;50.920;12.050;2022-07-03T06:43:07;21.80;99.90
13123;DHT22;6627;50.920;12.050;2022-07-03T06:45:36;22.10;99.90
13123;DHT22;6627;50.920;12.050;2022-07-03T06:48:11;22.50;99.90
13123;DHT22;6627;50.920;12.050;2022-07-03T06:50:43;22.60;99.90
13123;DHT22;6627;50.920;12.050;2022-07-03T06:53:21;23.50;99.90
13123;DHT22;6627;50.920;12.050;2022-07-03T06:55:52;23.30;99.90
13123;DHT22;6627;50.920;12.050;2022-07-03T06:58:34;23.70;99.90
13123;DHT22;6627;50.920;12.050;2022-07-03T07:01:02;23.90;99.90
13123;DHT22;6627;50.920;12.050;2022-07-03T07:03:37;23.90;99.90
13123;DHT22;6627;50.920;12.050;2022-07-03T07:06:13;24.30;99.90
13123;DHT22;6627;50.920;12.050;2022-07-03T07:08:46;23.90;99.90
13123;DHT22;6627;50.920;12.050;2022-07-03T07:11:17;24.10;99.90
13123;DHT22;6627;50.920;12.050;2022-07-03T07:13:56;24.40;99.90
13123;DHT22;6627;50.920;12.050;2022-07-03T07:16:26;24.60;99.90
13123;DHT22;6627;50.920;12.050;2022-07-03T07:19:04;25.20;99.90
13123;DHT22;6627;50.920;12.050;2022-07-03T07:21:41;25.70;99.90
13123;DHT22;6627;50.920;12.050;2022-07-03T07:24:15;26.30;99.90
13123;DHT22;6627;50.920;12.050;2022-07-03T07:26:55;25.70;99.90
13123;DHT22;6627;50.920;12.050;2022-07-03T07:29:39;25.40;99.90
13123;DHT22;6627;50.920;12.050;2022-07-03T07:32:17;25.60;99.90
13123;DHT22;6627;50.920;12.050;2022-07-03T07:34:54;25.70;99.90
13123;DHT22;6627;50.920;12.050;2022-07-03T07:37:28;26.00;99.90
13123;DHT22;6627;50.920;12.050;2022-07-03T07:39:58;25.80;99.40
13123;DHT22;6627;50.920;12.050;2022-07-03T07:42:34;26.10;98.40
13123;DHT22;6627;50.920;12.050;2022-07-03T07:45:11;26.20;98.50
13123;DHT22;6627;50.920;12.050;2022-07-03T07:47:43;26.80;97.70
13123;DHT22;6627;50.920;12.050;2022-07-03T07:50:19;26.70;99.20
13123;DHT22;6627;50.920;12.050;2022-07-03T07:52:53;27.00;99.50
13123;DHT22;6627;50.920;12.050;2022-07-03T07:55:24;27.10;95.60
13123;DHT22;6627;50.920;12.050;2022-07-03T07:57:58;26.50;95.40
13123;DHT22;6627;50.920;12.050;2022-07-03T08:00:35;26.80;94.20
13123;DHT22;6627;50.920;12.050;2022-07-03T08:03:31;27.20;93.90
13123;DHT22;6627;50.920;12.050;2022-07-03T08:06:25;27.10;94.20
13123;DHT22;6627;50.920;12.050;2022-07-03T08:08:54;27.20;93.50
13123;DHT22;6627;50.920;12.050;2022-07-03T08:11:29;27.60;92.60
13123;DHT22;6627;50.920;12.050;2022-07-03T08:13:59;27.80;90.10
13123;DHT22;6627;50.920;12.050;2022-07-03T08:16:35;27.90;89.10
13123;DHT22;6627;50.920;12.050;2022-07-03T08:19:08;27.70;86.10
13123;DHT22;6627;50.920;12.050;2022-07-03T08:21:45;27.60;88.20
13123;DHT22;6627;50.920;12.050;2022-07-03T08:24:15;27.80;84.90
13123;DHT22;6627;50.920;12.050;2022-07-03T08:26:51;28.10;80.30
13123;DHT22;6627;50.920;12.050;2022-07-03T08:29:25;28.00;76.80
13123;DHT22;6627;50.920;12.050;2022-07-03T08:31:58;28.70;74.20
13123;DHT22;6627;50.920;12.050;2022-07-03T08:34:30;28.60;72.80
13123;DHT22;6627;50.920;12.050;2022-07-03T08:37:08;28.10;76.80
13123;DHT22;6627;50.920;12.050;2022-07-03T08:39:44;28.10;79.90
13123;DHT22;6627;50.920;12.050;2022-07-03T08:42:18;27.80;78.30
13123;DHT22;6627;50.920;12.050;2022-07-03T08:44:58;27.90;77.40
13123;DHT22;6627;50.920;12.050;2022-07-03T08:47:36;28.20;73.50
13123;DHT22;6627;50.920;12.050;2022-07-03T08:50:08;28.20;71.60
13123;DHT22;6627;50.920;12.050;2022-07-03T08:52:41;28.10;71.30
13123;DHT22;6627;50.920;12.050;2022-07-03T08:55:23;28.20;70.20
13123;DHT22;6627;50.920;12.050;2022-07-03T08:57:58;28.10;70.70
13123;DHT22;6627;50.920;12.050;2022-07-03T09:00:33;28.00;72.70
13123;DHT22;6627;50.920;12.050;2022-07-03T09:03:22;27.70;71.00
13123;DHT22;6627;50.920;12.050;2022-07-03T09:06:07;27.70;69.60
13123;DHT22;6627;50.920;12.050;2022-07-03T09:08:46;27.80;71.70
13123;DHT22;6627;50.920;12.050;2022-07-03T09:11:15;28.10;67.80
13123;DHT22;6627;50.920;12.050;2022-07-03T09:13:54;28.30;67.20
13123;DHT22;6627;50.920;12.050;2022-07-03T09:16:22;27.70;68.40
13123;DHT22;6627;50.920;12.050;2022-07-03T09:19:02;27.90;66.30
13123;DHT22;6627;50.920;12.050;2022-07-03T09:21:43;28.00;66.60
13123;DHT22;6627;50.920;12.050;2022-07-03T09:24:20;28.00;64.30
13123;DHT22;6627;50.920;12.050;2022-07-03T09:26:52;28.00;66.80
13123;DHT22;6627;50.920;12.050;2022-07-03T09:29:22;28.30;64.00
13123;DHT22;6627;50.920;12.050;2022-07-03T09:31:56;28.30;66.30
13123;DHT22;6627;50.920;12.050;2022-07-03T09:34:38;28.40;63.50
13123;DHT22;6627;50.920;12.050;2022-07-03T09:37:11;28.30;60.80
13123;DHT22;6627;50.920;12.050;2022-07-03T09:40:01;28.10;60.00
13123;DHT22;6627;50.920;12.050;2022-07-03T09:42:39;28.40;60.90
13123;DHT22;6627;50.920;12.050;2022-07-03T09:45:18;28.70;59.60
13123;DHT22;6627;50.920;12.050;2022-07-03T09:47:52;28.70;60.00
13123;DHT22;6627;50.920;12.050;2022-07-03T09:50:30;28.60;62.90
13123;DHT22;6627;50.920;12.050;2022-07-03T09:53:00;28.70;61.40
13123;DHT22;6627;50.920;12.050;2022-07-03T09:55:33;28.80;60.70
13123;DHT22;6627;50.920;12.050;2022-07-03T09:58:05;28.60;61.90
13123;DHT22;6627;50.920;12.050;2022-07-03T10:00:35;28.30;60.60
13123;DHT22;6627;50.920;12.050;2022-07-03T10:03:06;28.40;57.80
13123;DHT22;6627;50.920;12.050;2022-07-03T10:05:38;28.60;59.80
13123;DHT22;6627;50.920;12.050;2022-07-03T10:08:10;28.70;58.40
13123;DHT22;6627;50.920;12.050;2022-07-03T10:10:46;28.60;59.50
13123;DHT22;6627;50.920;12.050;2022-07-03T10:13:24;28.40;57.50
13123;DHT22;6627;50.920;12.050;2022-07-03T10:15:58;28.40;58.60
13123;DHT22;6627;50.920;12.050;2022-07-03T10:18:31;28.30;59.10
13123;DHT22;6627;50.920;12.050;2022-07-03T10:21:18;28.30;59.90
13123;DHT22;6627;50.920;12.050;2022-07-03T10:24:02;28.40;59.60
13123;DHT22;6627;50.920;12.050;2022-07-03T10:26:36;28.60;59.70
13123;DHT22;6627;50.920;12.050;2022-07-03T10:29:10;28.80;60.20
13123;DHT22;6627;50.920;12.050;2022-07-03T10:31:53;29.00;60.10
13123;DHT22;6627;50.920;12.050;2022-07-03T10:34:26;28.90;59.80
13123;DHT22;6627;50.920;12.050;2022-07-03T10:37:02;29.20;61.70
13123;DHT22;6627;50.920;12.050;2022-07-03T10:39:40;29.10;60.00
13123;DHT22;6627;50.920;12.050;2022-07-03T10:42:31;29.40;65.20
13123;DHT22;6627;50.920;12.050;2022-07-03T10:45:31;29.30;63.70
13123;DHT22;6627;50.920;12.050;2022-07-03T10:48:06;29.20;59.50
13123;DHT22;6627;50.920;12.050;2022-07-03T10:50:39;28.90;63.40
13123;DHT22;6627;50.920;12.050;2022-07-03T10:53:23;29.10;60.80
13123;DHT22;6627;50.920;12.050;2022-07-03T10:56:03;29.00;58.80
13123;DHT22;6627;50.920;12.050;2022-07-03T10:58:55;28.80;61.80
13123;DHT22;6627;50.920;12.050;2022-07-03T11:01:29;28.90;57.90
13123;DHT22;6627;50.920;12.050;2022-07-03T11:04:12;29.10;58.40
13123;DHT22;6627;50.920;12.050;2022-07-03T11:07:08;29.20;55.40
13123;DHT22;6627;50.920;12.050;2022-07-03T11:13:16;29.10;56.80
13123;DHT22;6627;50.920;12.050;2022-07-03T11:15:53;29.50;59.60
13123;DHT22;6627;50.920;12.050;2022-07-03T11:24:35;29.50;57.10
13123;DHT22;6627;50.920;12.050;2022-07-03T11:27:23;29.30;54.40
13123;DHT22;6627;50.920;12.050;2022-07-03T11:30:08;29.60;56.10
13123;DHT22;6627;50.920;12.050;2022-07-03T11:32:52;29.80;54.70
13123;DHT22;6627;50.920;12.050;2022-07-03T11:35:52;29.60;53.40
13123;DHT22;6627;50.920;12.050;2022-07-03T11:38:28;29.50;54.10
13123;DHT22;6627;50.920;12.050;2022-07-03T11:41:01;29.50;53.70
13123;DHT22;6627;50.920;12.050;2022-07-03T11:43:47;29.40;52.30
13123;DHT22;6627;50.920;12.050;2022-07-03T11:46:21;29.40;53.40
13123;DHT22;6627;50.920;12.050;2022-07-03T11:49:04;29.80;54.90
13123;DHT22;6627;50.920;12.050;2022-07-03T11:51:43;30.00;53.80
13123;DHT22;6627;50.920;12.050;2022-07-03T11:54:50;29.70;51.20
13123;DHT22;6627;50.920;12.050;2022-07-03T11:57:25;29.20;54.40
13123;DHT22;6627;50.920;12.050;2022-07-03T12:00:09;29.30;51.90
13123;DHT22;6627;50.920;12.050;2022-07-03T12:02:49;29.40;52.80
13123;DHT22;6627;50.920;12.050;2022-07-03T12:05:30;29.40;53.20
13123;DHT22;6627;50.920;12.050;2022-07-03T12:08:06;29.30;53.30
13123;DHT22;6627;50.920;12.050;2022-07-03T12:10:40;29.30;54.00
13123;DHT22;6627;50.920;12.050;2022-07-03T12:13:18;29.40;53.00
13123;DHT22;6627;50.920;12.050;2022-07-03T12:16:09;29.10;52.20
13123;DHT22;6627;50.920;12.050;2022-07-03T12:18:50;29.00;53.00
13123;DHT22;6627;50.920;12.050;2022-07-03T12:21:36;28.90;56.20
13123;DHT22;6627;50.920;12.050;2022-07-03T12:24:15;28.80;51.90
13123;DHT22;6627;50.920;12.050;2022-07-03T12:26:48;29.40;53.10
13123;DHT22;6627;50.920;12.050;2022-07-03T12:29:29;29.70;52.50
13123;DHT22;6627;50.920;12.050;2022-07-03T12:32:09;29.60;51.10
13123;DHT22;6627;50.920;12.050;2022-07-03T12:34:49;29.90;50.40
13123;DHT22;6627;50.920;12.050;2022-07-03T12:37:31;30.00;49.60
13123;DHT22;6627;50.920;12.050;2022-07-03T12:40:06;30.20;49.50
13123;DHT22;6627;50.920;12.050;2022-07-03T12:42:44;30.20;48.60
13123;DHT22;6627;50.920;12.050;2022-07-03T12:45:24;30.30;47.90
13123;DHT22;6627;50.920;12.050;2022-07-03T12:48:02;30.40;46.20
13123;DHT22;6627;50.920;12.050;2022-07-03T12:50:44;30.30;45.50
13123;DHT22;6627;50.920;12.050;2022-07-03T12:53:32;30.00;46.20
13123;DHT22;6627;50.920;12.050;2022-07-03T12:56:10;30.20;47.20
13123;DHT22;6627;50.920;12.050;2022-07-03T12:58:54;30.30;47.90
13123;DHT22;6627;50.920;12.050;2022-07-03T13:01:41;30.30;49.20
13123;DHT22;6627;50.920;12.050;2022-07-03T13:04:30;30.30;49.60
13123;DHT22;6627;50.920;12.050;2022-07-03T13:07:04;30.40;49.70
13123;DHT22;6627;50.920;12.050;2022-07-03T13:09:52;30.50;49.10
13123;DHT22;6627;50.920;12.050;2022-07-03T13:12:26;30.30;46.10
13123;DHT22;6627;50.920;12.050;2022-07-03T13:14:57;30.20;46.30
13123;DHT22;6627;50.920;12.050;2022-07-03T13:17:58;30.70;46.90
13123;DHT22;6627;50.920;12.050;2022-07-03T13:20:36;30.80;47.10
13123;DHT22;6627;50.920;12.050;2022-07-03T13:23:13;30.50;45.40
13123;DHT22;6627;50.920;12.050;2022-07-03T13:25:43;30.60;46.10
13123;DHT22;6627;50.920;12.050;2022-07-03T13:28:16;30.80;45.40
13123;DHT22;6627;50.920;12.050;2022-07-03T13:31:02;30.60;45.80
13123;DHT22;6627;50.920;12.050;2022-07-03T13:33:44;30.70;46.00
13123;DHT22;6627;50.920;12.050;2022-07-03T13:36:21;31.00;45.00
13123;DHT22;6627;50.920;12.050;2022-07-03T13:38:49;30.70;45.90
13123;DHT22;6627;50.920;12.050;2022-07-03T13:41:23;31.00;46.50
13123;DHT22;6627;50.920;12.050;2022-07-03T13:43:57;31.10;47.10
13123;DHT22;6627;50.920;12.050;2022-07-03T13:46:36;31.20;45.80
13123;DHT22;6627;50.920;12.050;2022-07-03T13:49:09;31.10;46.10
13123;DHT22;6627;50.920;12.050;2022-07-03T13:51:44;30.90;44.00
13123;DHT22;6627;50.920;12.050;2022-07-03T13:54:19;31.10;45.30
13123;DHT22;6627;50.920;12.050;2022-07-03T13:56:54;30.80;43.90
13123;DHT22;6627;50.920;12.050;2022-07-03T14:02:06;31.20;43.70
13123;DHT22;6627;50.920;12.050;2022-07-03T14:04:39;31.30;44.60
13123;DHT22;6627;50.920;12.050;2022-07-03T14:07:18;31.20;43.60
13123;DHT22;6627;50.920;12.050;2022-07-03T14:09:51;31.00;43.20
13123;DHT22;6627;50.920;12.050;2022-07-03T14:12:25;30.90;43.00
13123;DHT22;6627;50.920;12.050;2022-07-03T14:14:58;31.00;43.90
13123;DHT22;6627;50.920;12.050;2022-07-03T14:17:40;31.10;43.80
13123;DHT22;6627;50.920;12.050;2022-07-03T14:20:14;30.80;44.20
13123;DHT22;6627;50.920;12.050;2022-07-03T14:22:48;30.80;44.30
13123;DHT22;6627;50.920;12.050;2022-07-03T14:25:34;30.50;45.40
13123;DHT22;6627;50.920;12.050;2022-07-03T14:28:10;30.40;44.60
13123;DHT22;6627;50.920;12.050;2022-07-03T14:31:14;30.40;45.50
13123;DHT22;6627;50.920;12.050;2022-07-03T14:34:07;30.30;46.30
13123;DHT22;6627;50.920;12.050;2022-07-03T14:36:39;30.30;47.00
13123;DHT22;6627;50.920;12.050;2022-07-03T14:39:12;30.30;46.40
13123;DHT22;6627;50.920;12.050;2022-07-03T14:41:49;30.00;46.00
13123;DHT22;6627;50.920;12.050;2022-07-03T14:44:26;29.90;47.50
13123;DHT22;6627;50.920;12.050;2022-07-03T14:47:05;29.80;53.00
13123;DHT22;6627;50.920;12.050;2022-07-03T14:49:38;29.70;46.80
13123;DHT22;6627;50.920;12.050;2022-07-03T14:52:17;30.00;47.10
13123;DHT22;6627;50.920;12.050;2022-07-03T14:54:46;30.20;46.10
13123;DHT22;6627;50.920;12.050;2022-07-03T14:57:35;30.50;45.50
13123;DHT22;6627;50.920;12.050;2022-07-03T15:00:19;30.80;45.00
13123;DHT22;6627;50.920;12.050;2022-07-03T15:03:07;30.80;45.40
13123;DHT22;6627;50.920;12.050;2022-07-03T15:05:46;30.60;46.40
13123;DHT22;6627;50.920;12.050;2022-07-03T15:08:43;30.40;45.70
13123;DHT22;6627;50.920;12.050;2022-07-03T15:11:33;30.40;46.30
13123;DHT22;6627;50.920;12.050;2022-07-03T15:14:23;30.40;45.60
13123;DHT22;6627;50.920;12.050;2022-07-03T15:16:52;30.70;47.50
13123;DHT22;6627;50.920;12.050;2022-07-03T15:19:20;30.80;48.00
13123;DHT22;6627;50.920;12.050;2022-07-03T15:21:51;30.60;46.00
13123;DHT22;6627;50.920;12.050;2022-07-03T15:24:20;30.30;46.80
13123;DHT22;6627;50.920;12.050;2022-07-03T15:26:53;30.30;46.60
13123;DHT22;6627;50.920;12.050;2022-07-03T15:29:22;30.60;47.20
13123;DHT22;6627;50.920;12.050;2022-07-03T15:31:50;30.70;44.40
13123;DHT22;6627;50.920;12.050;2022-07-03T15:34:17;30.70;45.40
13123;DHT22;6627;50.920;12.050;2022-07-03T15:36:51;30.90;45.70
13123;DHT22;6627;50.920;12.050;2022-07-03T15:39:31;30.90;45.50
13123;DHT22;6627;50.920;12.050;2022-07-03T15:42:12;30.60;44.10
13123;DHT22;6627;50.920;12.050;2022-07-03T15:44:50;30.60;44.90
13123;DHT22;6627;50.920;12.050;2022-07-03T15:47:41;30.70;44.40
13123;DHT22;6627;50.920;12.050;2022-07-03T15:50:30;30.60;46.80
13123;DHT22;6627;50.920;12.050;2022-07-03T15:53:04;30.60;48.40
13123;DHT22;6627;50.920;12.050;2022-07-03T15:55:42;30.50;49.80
13123;DHT22;6627;50.920;12.050;2022-07-03T15:58:12;30.60;46.20
13123;DHT22;6627;50.920;12.050;2022-07-03T16:00:42;30.50;44.50
13123;DHT22;6627;50.920;12.050;2022-07-03T16:03:35;30.50;46.60
13123;DHT22;6627;50.920;12.050;2022-07-03T16:06:17;30.30;44.40
13123;DHT22;6627;50.920;12.050;2022-07-03T16:08:47;30.20;45.60
13123;DHT22;6627;50.920;12.050;2022-07-03T16:11:16;30.10;46.40
13123;DHT22;6627;50.920;12.050;2022-07-03T16:13:45;30.40;46.80
13123;DHT22;6627;50.920;12.050;2022-07-03T16:16:17;30.40;45.50
13123;DHT22;6627;50.920;12.050;2022-07-03T16:18:47;30.10;45.10
13123;DHT22;6627;50.920;12.050;2022-07-03T16:21:21;30.20;45.30
13123;DHT22;6627;50.920;12.050;2022-07-03T16:23:49;30.20;44.80
13123;DHT22;6627;50.920;12.050;2022-07-03T16:26:17;30.30;44.70
13123;DHT22;6627;50.920;12.050;2022-07-03T16:28:46;30.20;44.10
13123;DHT22;6627;50.920;12.050;2022-07-03T16:31:16;30.00;46.30
13123;DHT22;6627;50.920;12.050;2022-07-03T16:33:51;29.90;46.20
13123;DHT22;6627;50.920;12.050;2022-07-03T16:36:30;29.80;48.50
13123;DHT22;6627;50.920;12.050;2022-07-03T16:39:02;29.80;44.70
13123;DHT22;6627;50.920;12.050;2022-07-03T16:41:33;30.00;46.70
13123;DHT22;6627;50.920;12.050;2022-07-03T16:44:06;29.80;46.00
13123;DHT22;6627;50.920;12.050;2022-07-03T16:46:40;29.70;48.00